Etusivu
METAR-TAF:

METAR-TAF

Lentoasemat :

Brenham Municipal Airport

Brenham, Texas, Yhdysvallat

Leveyspiiri: 30-13-08N, Pituuspiiri: 096-22-27W, korkeus merenpinnasta: 94 m

Tämänhetkinen sää

Tämä raportti tehtiin 28 minuuttia sitten, kello 04.35 UTC
tyyntä
Lämpötila 14°C
Kosteus 88%
Ilmanpaine 1020 hPa
Näkyvyys: 16.1 km
selkeää

METAR: K11R 300435Z AUTO 00000KT 10SM CLR 14/12 A3012 RMK AO2 T01360116

Aika: 00:03 (05:03 UTC)


TAF: puuttuu

Säähavainnot ja -ennusteet yli 4000 lentoasemalta (METAR- ja TAF-raportit).

Käytössä olevat sääasemat on merkitty karttaan keltaisilla ja punaisilla pisteillä.

Aseta hiiri pisteen päälle nähdäksesi sääaseman nimen.

Klikkaa sitten nähdäksesi säähavainnot ja -ennusteet.

Kartan vaihtaminen: klikkaa mustalla rastilla varustettuja vihreitä pisteitä, niin voit zoomata sisään; viivalla varustettua vihreää pistettä, niin voit zoomata ulos tai vihreitä nuolia, niin pääset viereisille kartoille.


METAR-TAF: